sensor_id;sensor_type;location;lat;lon;timestamp;P1;durP1;ratioP1;P2;durP2;ratioP2
31112;SDS011;17763;48.730;9.136;2023-12-04T00:00:24;36.15;;;22.52;;
31112;SDS011;17763;48.730;9.136;2023-12-04T00:02:52;36.53;;;21.00;;
31112;SDS011;17763;48.730;9.136;2023-12-04T00:05:18;40.75;;;22.05;;
31112;SDS011;17763;48.730;9.136;2023-12-04T00:07:44;39.67;;;22.05;;
31112;SDS011;17763;48.730;9.136;2023-12-04T00:10:14;36.33;;;20.93;;
31112;SDS011;17763;48.730;9.136;2023-12-04T00:12:42;36.90;;;20.92;;
31112;SDS011;17763;48.730;9.136;2023-12-04T00:15:08;35.40;;;19.92;;
31112;SDS011;17763;48.730;9.136;2023-12-04T00:17:35;37.67;;;20.80;;
31112;SDS011;17763;48.730;9.136;2023-12-04T00:20:05;37.67;;;21.27;;
31112;SDS011;17763;48.730;9.136;2023-12-04T00:22:31;34.10;;;19.77;;
31112;SDS011;17763;48.730;9.136;2023-12-04T00:25:00;32.40;;;20.15;;
31112;SDS011;17763;48.730;9.136;2023-12-04T00:27:25;34.75;;;19.45;;
31112;SDS011;17763;48.730;9.136;2023-12-04T00:29:53;35.58;;;21.15;;
31112;SDS011;17763;48.730;9.136;2023-12-04T00:32:18;33.50;;;20.60;;
31112;SDS011;17763;48.730;9.136;2023-12-04T00:34:44;38.03;;;21.48;;
31112;SDS011;17763;48.730;9.136;2023-12-04T00:37:10;36.35;;;20.08;;
31112;SDS011;17763;48.730;9.136;2023-12-04T00:39:36;35.92;;;20.02;;
31112;SDS011;17763;48.730;9.136;2023-12-04T00:42:02;33.03;;;19.50;;
31112;SDS011;17763;48.730;9.136;2023-12-04T00:44:28;36.95;;;20.33;;
31112;SDS011;17763;48.730;9.136;2023-12-04T00:46:54;40.38;;;22.40;;
31112;SDS011;17763;48.730;9.136;2023-12-04T00:49:19;34.70;;;19.63;;
31112;SDS011;17763;48.730;9.136;2023-12-04T00:51:45;34.78;;;19.73;;
31112;SDS011;17763;48.730;9.136;2023-12-04T00:54:11;33.88;;;20.13;;
31112;SDS011;17763;48.730;9.136;2023-12-04T00:56:40;31.67;;;18.73;;
31112;SDS011;17763;48.730;9.136;2023-12-04T00:59:08;35.00;;;18.95;;
31112;SDS011;17763;48.730;9.136;2023-12-04T01:01:37;31.23;;;18.27;;
31112;SDS011;17763;48.730;9.136;2023-12-04T01:04:03;29.13;;;17.13;;
31112;SDS011;17763;48.730;9.136;2023-12-04T01:06:29;27.02;;;16.23;;
31112;SDS011;17763;48.730;9.136;2023-12-04T01:08:55;30.67;;;17.27;;
31112;SDS011;17763;48.730;9.136;2023-12-04T01:11:21;25.65;;;15.98;;
31112;SDS011;17763;48.730;9.136;2023-12-04T01:13:48;28.58;;;17.13;;
31112;SDS011;17763;48.730;9.136;2023-12-04T01:16:14;27.00;;;16.67;;
31112;SDS011;17763;48.730;9.136;2023-12-04T01:18:40;28.92;;;17.40;;
31112;SDS011;17763;48.730;9.136;2023-12-04T01:21:07;28.40;;;17.50;;
31112;SDS011;17763;48.730;9.136;2023-12-04T01:23:36;33.35;;;17.08;;
31112;SDS011;17763;48.730;9.136;2023-12-04T01:26:02;28.38;;;17.25;;
31112;SDS011;17763;48.730;9.136;2023-12-04T01:28:28;30.30;;;16.90;;
31112;SDS011;17763;48.730;9.136;2023-12-04T01:30:56;30.50;;;17.33;;
31112;SDS011;17763;48.730;9.136;2023-12-04T01:33:27;28.17;;;17.83;;
31112;SDS011;17763;48.730;9.136;2023-12-04T01:35:55;28.48;;;16.50;;
31112;SDS011;17763;48.730;9.136;2023-12-04T01:38:23;29.52;;;16.52;;
31112;SDS011;17763;48.730;9.136;2023-12-04T01:40:49;29.27;;;18.90;;
31112;SDS011;17763;48.730;9.136;2023-12-04T01:43:16;30.10;;;18.25;;
31112;SDS011;17763;48.730;9.136;2023-12-04T01:45:46;27.40;;;16.77;;
31112;SDS011;17763;48.730;9.136;2023-12-04T01:48:12;29.75;;;17.88;;
31112;SDS011;17763;48.730;9.136;2023-12-04T01:50:39;32.13;;;17.67;;
31112;SDS011;17763;48.730;9.136;2023-12-04T01:53:05;31.73;;;18.33;;
31112;SDS011;17763;48.730;9.136;2023-12-04T01:55:36;28.30;;;17.40;;
31112;SDS011;17763;48.730;9.136;2023-12-04T01:58:05;30.15;;;17.52;;
31112;SDS011;17763;48.730;9.136;2023-12-04T02:00:31;31.52;;;18.75;;
31112;SDS011;17763;48.730;9.136;2023-12-04T02:02:58;31.25;;;19.23;;
31112;SDS011;17763;48.730;9.136;2023-12-04T02:05:24;32.58;;;18.40;;
31112;SDS011;17763;48.730;9.136;2023-12-04T02:07:52;33.70;;;19.80;;
31112;SDS011;17763;48.730;9.136;2023-12-04T02:10:18;33.25;;;18.90;;
31112;SDS011;17763;48.730;9.136;2023-12-04T02:12:44;38.67;;;20.77;;
31112;SDS011;17763;48.730;9.136;2023-12-04T02:15:10;34.80;;;20.23;;
31112;SDS011;17763;48.730;9.136;2023-12-04T02:17:36;35.78;;;20.75;;
31112;SDS011;17763;48.730;9.136;2023-12-04T02:20:04;36.85;;;20.70;;
31112;SDS011;17763;48.730;9.136;2023-12-04T02:22:30;39.90;;;20.98;;
31112;SDS011;17763;48.730;9.136;2023-12-04T02:24:57;36.58;;;20.63;;
31112;SDS011;17763;48.730;9.136;2023-12-04T02:27:26;38.70;;;22.23;;
31112;SDS011;17763;48.730;9.136;2023-12-04T02:30:01;44.40;;;24.90;;
31112;SDS011;17763;48.730;9.136;2023-12-04T02:32:31;37.60;;;22.13;;
31112;SDS011;17763;48.730;9.136;2023-12-04T02:35:02;47.15;;;25.02;;
31112;SDS011;17763;48.730;9.136;2023-12-04T02:37:30;35.10;;;20.10;;
31112;SDS011;17763;48.730;9.136;2023-12-04T02:39:57;33.88;;;19.50;;
31112;SDS011;17763;48.730;9.136;2023-12-04T02:42:23;36.13;;;19.48;;
31112;SDS011;17763;48.730;9.136;2023-12-04T02:44:50;32.83;;;19.00;;
31112;SDS011;17763;48.730;9.136;2023-12-04T02:47:16;31.67;;;18.65;;
31112;SDS011;17763;48.730;9.136;2023-12-04T02:49:42;31.20;;;18.08;;
31112;SDS011;17763;48.730;9.136;2023-12-04T02:52:08;29.55;;;17.33;;
31112;SDS011;17763;48.730;9.136;2023-12-04T02:54:34;27.88;;;16.67;;
31112;SDS011;17763;48.730;9.136;2023-12-04T02:57:00;28.15;;;17.13;;
31112;SDS011;17763;48.730;9.136;2023-12-04T02:59:25;25.92;;;16.80;;
31112;SDS011;17763;48.730;9.136;2023-12-04T03:01:51;33.40;;;17.25;;
31112;SDS011;17763;48.730;9.136;2023-12-04T03:04:18;24.42;;;15.10;;
31112;SDS011;17763;48.730;9.136;2023-12-04T03:06:44;29.40;;;15.70;;
31112;SDS011;17763;48.730;9.136;2023-12-04T03:09:10;26.45;;;16.15;;
31112;SDS011;17763;48.730;9.136;2023-12-04T03:11:39;28.33;;;16.65;;
31112;SDS011;17763;48.730;9.136;2023-12-04T03:14:08;29.40;;;17.20;;
31112;SDS011;17763;48.730;9.136;2023-12-04T03:16:34;27.33;;;15.77;;
31112;SDS011;17763;48.730;9.136;2023-12-04T03:19:00;26.60;;;16.25;;
31112;SDS011;17763;48.730;9.136;2023-12-04T03:21:25;30.63;;;17.45;;
31112;SDS011;17763;48.730;9.136;2023-12-04T03:23:53;30.75;;;17.25;;
31112;SDS011;17763;48.730;9.136;2023-12-04T03:26:21;27.02;;;17.15;;
31112;SDS011;17763;48.730;9.136;2023-12-04T03:28:47;29.35;;;16.90;;
31112;SDS011;17763;48.730;9.136;2023-12-04T03:31:13;29.42;;;16.90;;
31112;SDS011;17763;48.730;9.136;2023-12-04T03:33:39;25.77;;;16.17;;
31112;SDS011;17763;48.730;9.136;2023-12-04T03:36:05;26.20;;;15.75;;
31112;SDS011;17763;48.730;9.136;2023-12-04T03:38:33;26.10;;;16.27;;
31112;SDS011;17763;48.730;9.136;2023-12-04T03:41:02;26.23;;;15.02;;
31112;SDS011;17763;48.730;9.136;2023-12-04T03:43:27;25.70;;;15.15;;
31112;SDS011;17763;48.730;9.136;2023-12-04T03:45:53;23.73;;;14.57;;
31112;SDS011;17763;48.730;9.136;2023-12-04T03:48:19;28.17;;;15.32;;
31112;SDS011;17763;48.730;9.136;2023-12-04T03:50:45;25.83;;;15.18;;
31112;SDS011;17763;48.730;9.136;2023-12-04T03:53:10;26.60;;;15.40;;
31112;SDS011;17763;48.730;9.136;2023-12-04T03:55:36;25.25;;;15.35;;
31112;SDS011;17763;48.730;9.136;2023-12-04T03:58:02;26.58;;;16.17;;
31112;SDS011;17763;48.730;9.136;2023-12-04T04:00:28;26.35;;;15.13;;
31112;SDS011;17763;48.730;9.136;2023-12-04T04:02:57;25.17;;;14.85;;
31112;SDS011;17763;48.730;9.136;2023-12-04T04:05:22;23.83;;;14.73;;
31112;SDS011;17763;48.730;9.136;2023-12-04T04:07:48;26.27;;;15.73;;
31112;SDS011;17763;48.730;9.136;2023-12-04T04:10:14;25.63;;;15.40;;
31112;SDS011;17763;48.730;9.136;2023-12-04T04:12:40;25.73;;;15.25;;
31112;SDS011;17763;48.730;9.136;2023-12-04T04:15:08;28.08;;;16.45;;
31112;SDS011;17763;48.730;9.136;2023-12-04T04:17:38;30.63;;;17.77;;
31112;SDS011;17763;48.730;9.136;2023-12-04T04:20:05;44.88;;;20.98;;
31112;SDS011;17763;48.730;9.136;2023-12-04T04:22:31;73.30;;;27.58;;
31112;SDS011;17763;48.730;9.136;2023-12-04T04:25:02;85.78;;;35.20;;
31112;SDS011;17763;48.730;9.136;2023-12-04T04:27:34;59.60;;;25.55;;
31112;SDS011;17763;48.730;9.136;2023-12-04T04:30:00;42.88;;;22.10;;
31112;SDS011;17763;48.730;9.136;2023-12-04T04:32:26;43.45;;;21.80;;
31112;SDS011;17763;48.730;9.136;2023-12-04T04:34:54;40.38;;;20.30;;
31112;SDS011;17763;48.730;9.136;2023-12-04T04:37:23;38.25;;;19.75;;
31112;SDS011;17763;48.730;9.136;2023-12-04T04:39:49;34.50;;;19.00;;
31112;SDS011;17763;48.730;9.136;2023-12-04T04:42:14;28.27;;;17.88;;
31112;SDS011;17763;48.730;9.136;2023-12-04T04:44:42;25.83;;;15.05;;
31112;SDS011;17763;48.730;9.136;2023-12-04T04:47:13;27.20;;;15.02;;
31112;SDS011;17763;48.730;9.136;2023-12-04T04:49:39;21.88;;;13.27;;
31112;SDS011;17763;48.730;9.136;2023-12-04T04:52:06;22.70;;;14.32;;
31112;SDS011;17763;48.730;9.136;2023-12-04T04:54:32;23.35;;;14.10;;
31112;SDS011;17763;48.730;9.136;2023-12-04T04:57:01;21.42;;;12.98;;
31112;SDS011;17763;48.730;9.136;2023-12-04T04:59:26;20.63;;;12.75;;
31112;SDS011;17763;48.730;9.136;2023-12-04T05:01:55;18.38;;;11.98;;
31112;SDS011;17763;48.730;9.136;2023-12-04T05:04:21;17.15;;;11.30;;
31112;SDS011;17763;48.730;9.136;2023-12-04T05:06:47;17.20;;;11.13;;
31112;SDS011;17763;48.730;9.136;2023-12-04T05:09:13;19.40;;;12.10;;
31112;SDS011;17763;48.730;9.136;2023-12-04T05:11:38;17.67;;;11.35;;
31112;SDS011;17763;48.730;9.136;2023-12-04T05:14:04;20.48;;;12.27;;
31112;SDS011;17763;48.730;9.136;2023-12-04T05:16:30;18.80;;;11.60;;
31112;SDS011;17763;48.730;9.136;2023-12-04T05:18:56;20.33;;;13.02;;
31112;SDS011;17763;48.730;9.136;2023-12-04T05:21:21;16.95;;;11.45;;
31112;SDS011;17763;48.730;9.136;2023-12-04T05:23:47;18.95;;;11.57;;
31112;SDS011;17763;48.730;9.136;2023-12-04T05:26:13;19.20;;;11.93;;
31112;SDS011;17763;48.730;9.136;2023-12-04T05:28:39;20.08;;;12.40;;
31112;SDS011;17763;48.730;9.136;2023-12-04T05:31:05;18.00;;;11.93;;
31112;SDS011;17763;48.730;9.136;2023-12-04T05:33:31;18.77;;;12.55;;
31112;SDS011;17763;48.730;9.136;2023-12-04T05:35:57;19.45;;;12.65;;
31112;SDS011;17763;48.730;9.136;2023-12-04T05:38:22;20.80;;;13.35;;
31112;SDS011;17763;48.730;9.136;2023-12-04T05:40:48;21.08;;;12.40;;
31112;SDS011;17763;48.730;9.136;2023-12-04T05:43:14;23.10;;;13.30;;
31112;SDS011;17763;48.730;9.136;2023-12-04T05:45:40;19.80;;;12.68;;
31112;SDS011;17763;48.730;9.136;2023-12-04T05:48:06;20.70;;;12.75;;
31112;SDS011;17763;48.730;9.136;2023-12-04T05:50:31;19.50;;;13.05;;
31112;SDS011;17763;48.730;9.136;2023-12-04T05:53:00;22.23;;;13.65;;
31112;SDS011;17763;48.730;9.136;2023-12-04T05:55:25;20.98;;;14.57;;
31112;SDS011;17763;48.730;9.136;2023-12-04T05:57:54;20.52;;;13.40;;
31112;SDS011;17763;48.730;9.136;2023-12-04T06:00:20;23.48;;;13.82;;
31112;SDS011;17763;48.730;9.136;2023-12-04T06:02:50;22.17;;;14.32;;
31112;SDS011;17763;48.730;9.136;2023-12-04T06:05:19;23.58;;;13.45;;
31112;SDS011;17763;48.730;9.136;2023-12-04T06:07:44;23.65;;;14.65;;
31112;SDS011;17763;48.730;9.136;2023-12-04T06:10:10;22.77;;;13.95;;
31112;SDS011;17763;48.730;9.136;2023-12-04T06:12:36;23.67;;;13.75;;
31112;SDS011;17763;48.730;9.136;2023-12-04T06:15:07;22.48;;;14.05;;
31112;SDS011;17763;48.730;9.136;2023-12-04T06:17:33;22.95;;;14.07;;
31112;SDS011;17763;48.730;9.136;2023-12-04T06:19:59;22.73;;;14.90;;
31112;SDS011;17763;48.730;9.136;2023-12-04T06:22:27;24.50;;;14.30;;
31112;SDS011;17763;48.730;9.136;2023-12-04T06:24:53;22.33;;;14.65;;
31112;SDS011;17763;48.730;9.136;2023-12-04T06:27:19;22.63;;;13.95;;
31112;SDS011;17763;48.730;9.136;2023-12-04T06:29:48;20.40;;;13.50;;
31112;SDS011;17763;48.730;9.136;2023-12-04T06:32:14;24.55;;;14.05;;
31112;SDS011;17763;48.730;9.136;2023-12-04T06:34:43;20.25;;;12.40;;
31112;SDS011;17763;48.730;9.136;2023-12-04T06:37:12;20.35;;;12.82;;
31112;SDS011;17763;48.730;9.136;2023-12-04T06:39:41;20.63;;;12.70;;
31112;SDS011;17763;48.730;9.136;2023-12-04T06:42:07;21.52;;;13.25;;
31112;SDS011;17763;48.730;9.136;2023-12-04T06:44:39;22.08;;;14.02;;
31112;SDS011;17763;48.730;9.136;2023-12-04T06:47:05;20.48;;;13.23;;
31112;SDS011;17763;48.730;9.136;2023-12-04T06:49:33;22.08;;;13.45;;
31112;SDS011;17763;48.730;9.136;2023-12-04T06:51:59;24.42;;;15.23;;
31112;SDS011;17763;48.730;9.136;2023-12-04T06:54:29;28.25;;;15.10;;
31112;SDS011;17763;48.730;9.136;2023-12-04T06:56:59;23.08;;;13.82;;
31112;SDS011;17763;48.730;9.136;2023-12-04T06:59:28;27.55;;;15.00;;
31112;SDS011;17763;48.730;9.136;2023-12-04T07:01:56;29.92;;;16.95;;
31112;SDS011;17763;48.730;9.136;2023-12-04T07:04:24;27.00;;;16.15;;
31112;SDS011;17763;48.730;9.136;2023-12-04T07:06:50;27.30;;;16.30;;
31112;SDS011;17763;48.730;9.136;2023-12-04T07:09:19;26.05;;;16.27;;
31112;SDS011;17763;48.730;9.136;2023-12-04T07:11:47;32.80;;;17.35;;
31112;SDS011;17763;48.730;9.136;2023-12-04T07:14:13;33.72;;;17.85;;
31112;SDS011;17763;48.730;9.136;2023-12-04T07:16:40;37.42;;;18.20;;
31112;SDS011;17763;48.730;9.136;2023-12-04T07:19:09;35.95;;;18.55;;
31112;SDS011;17763;48.730;9.136;2023-12-04T07:21:36;30.08;;;17.67;;
31112;SDS011;17763;48.730;9.136;2023-12-04T07:24:02;32.25;;;19.10;;
31112;SDS011;17763;48.730;9.136;2023-12-04T07:26:30;32.08;;;18.17;;
31112;SDS011;17763;48.730;9.136;2023-12-04T07:28:59;26.90;;;15.80;;
31112;SDS011;17763;48.730;9.136;2023-12-04T07:31:25;25.20;;;14.68;;
31112;SDS011;17763;48.730;9.136;2023-12-04T07:33:54;22.63;;;14.90;;
31112;SDS011;17763;48.730;9.136;2023-12-04T07:36:20;22.42;;;14.50;;
31112;SDS011;17763;48.730;9.136;2023-12-04T07:38:46;25.25;;;14.38;;
31112;SDS011;17763;48.730;9.136;2023-12-04T07:41:14;26.00;;;14.57;;
31112;SDS011;17763;48.730;9.136;2023-12-04T07:43:56;25.92;;;15.52;;
31112;SDS011;17763;48.730;9.136;2023-12-04T07:46:25;27.58;;;15.07;;
31112;SDS011;17763;48.730;9.136;2023-12-04T07:48:50;25.60;;;15.48;;
31112;SDS011;17763;48.730;9.136;2023-12-04T07:51:16;24.98;;;15.25;;
31112;SDS011;17763;48.730;9.136;2023-12-04T07:53:42;23.58;;;14.43;;
31112;SDS011;17763;48.730;9.136;2023-12-04T07:56:07;24.45;;;16.23;;
31112;SDS011;17763;48.730;9.136;2023-12-04T07:58:33;22.50;;;14.85;;
31112;SDS011;17763;48.730;9.136;2023-12-04T08:00:59;23.33;;;15.40;;
31112;SDS011;17763;48.730;9.136;2023-12-04T08:03:25;24.70;;;15.02;;
31112;SDS011;17763;48.730;9.136;2023-12-04T08:05:51;25.40;;;15.45;;
31112;SDS011;17763;48.730;9.136;2023-12-04T08:08:17;26.85;;;16.25;;
31112;SDS011;17763;48.730;9.136;2023-12-04T08:10:45;28.02;;;17.05;;
31112;SDS011;17763;48.730;9.136;2023-12-04T08:13:12;28.30;;;17.85;;
31112;SDS011;17763;48.730;9.136;2023-12-04T08:15:38;31.00;;;18.35;;
31112;SDS011;17763;48.730;9.136;2023-12-04T08:18:03;29.70;;;18.40;;
31112;SDS011;17763;48.730;9.136;2023-12-04T08:20:29;34.88;;;19.67;;
31112;SDS011;17763;48.730;9.136;2023-12-04T08:22:58;30.30;;;19.15;;
31112;SDS011;17763;48.730;9.136;2023-12-04T08:25:26;33.70;;;17.58;;
31112;SDS011;17763;48.730;9.136;2023-12-04T08:27:51;37.22;;;19.10;;
31112;SDS011;17763;48.730;9.136;2023-12-04T08:30:17;31.10;;;18.90;;
31112;SDS011;17763;48.730;9.136;2023-12-04T08:32:45;28.50;;;17.10;;
31112;SDS011;17763;48.730;9.136;2023-12-04T08:35:14;28.25;;;16.75;;
31112;SDS011;17763;48.730;9.136;2023-12-04T08:37:40;30.70;;;16.20;;
31112;SDS011;17763;48.730;9.136;2023-12-04T08:40:06;25.30;;;15.23;;
31112;SDS011;17763;48.730;9.136;2023-12-04T08:42:33;29.80;;;16.83;;
31112;SDS011;17763;48.730;9.136;2023-12-04T08:44:59;25.58;;;15.93;;
31112;SDS011;17763;48.730;9.136;2023-12-04T08:47:24;29.25;;;16.52;;
31112;SDS011;17763;48.730;9.136;2023-12-04T08:49:52;26.25;;;16.60;;
31112;SDS011;17763;48.730;9.136;2023-12-04T08:52:20;30.00;;;17.10;;
31112;SDS011;17763;48.730;9.136;2023-12-04T08:54:50;25.20;;;16.23;;
31112;SDS011;17763;48.730;9.136;2023-12-04T08:57:16;24.98;;;15.25;;
31112;SDS011;17763;48.730;9.136;2023-12-04T08:59:42;26.83;;;16.15;;
31112;SDS011;17763;48.730;9.136;2023-12-04T09:02:08;24.42;;;14.77;;
31112;SDS011;17763;48.730;9.136;2023-12-04T09:04:33;25.33;;;15.65;;
31112;SDS011;17763;48.730;9.136;2023-12-04T09:07:01;22.83;;;14.82;;
31112;SDS011;17763;48.730;9.136;2023-12-04T09:09:27;24.23;;;15.65;;
31112;SDS011;17763;48.730;9.136;2023-12-04T09:11:53;27.42;;;16.13;;
31112;SDS011;17763;48.730;9.136;2023-12-04T09:14:20;22.27;;;12.70;;
31112;SDS011;17763;48.730;9.136;2023-12-04T09:16:46;15.35;;;11.05;;
31112;SDS011;17763;48.730;9.136;2023-12-04T09:19:12;17.92;;;12.10;;
31112;SDS011;17763;48.730;9.136;2023-12-04T09:21:38;16.30;;;11.18;;
31112;SDS011;17763;48.730;9.136;2023-12-04T09:24:04;17.05;;;10.95;;
31112;SDS011;17763;48.730;9.136;2023-12-04T09:26:29;16.17;;;10.48;;
31112;SDS011;17763;48.730;9.136;2023-12-04T09:28:55;19.15;;;11.10;;
31112;SDS011;17763;48.730;9.136;2023-12-04T09:31:21;17.65;;;12.77;;
31112;SDS011;17763;48.730;9.136;2023-12-04T09:33:49;17.60;;;11.32;;
31112;SDS011;17763;48.730;9.136;2023-12-04T09:36:17;16.25;;;12.13;;
31112;SDS011;17763;48.730;9.136;2023-12-04T09:38:43;18.98;;;11.25;;
31112;SDS011;17763;48.730;9.136;2023-12-04T09:41:09;18.27;;;11.63;;
31112;SDS011;17763;48.730;9.136;2023-12-04T09:43:37;17.10;;;11.50;;
31112;SDS011;17763;48.730;9.136;2023-12-04T09:46:05;19.17;;;11.50;;
31112;SDS011;17763;48.730;9.136;2023-12-04T09:48:34;20.10;;;12.32;;
31112;SDS011;17763;48.730;9.136;2023-12-04T09:51:02;18.23;;;11.40;;
31112;SDS011;17763;48.730;9.136;2023-12-04T09:53:28;17.13;;;11.68;;
31112;SDS011;17763;48.730;9.136;2023-12-04T09:55:57;22.17;;;12.60;;
31112;SDS011;17763;48.730;9.136;2023-12-04T09:58:28;18.65;;;12.45;;
31112;SDS011;17763;48.730;9.136;2023-12-04T10:00:58;14.70;;;10.93;;
31112;SDS011;17763;48.730;9.136;2023-12-04T10:03:25;18.38;;;12.45;;
31112;SDS011;17763;48.730;9.136;2023-12-04T10:05:51;16.10;;;11.25;;
31112;SDS011;17763;48.730;9.136;2023-12-04T10:08:17;17.45;;;11.40;;
31112;SDS011;17763;48.730;9.136;2023-12-04T10:10:42;20.65;;;11.80;;
31112;SDS011;17763;48.730;9.136;2023-12-04T10:13:08;19.20;;;12.65;;
31112;SDS011;17763;48.730;9.136;2023-12-04T10:15:35;18.95;;;11.88;;
31112;SDS011;17763;48.730;9.136;2023-12-04T10:18:28;18.35;;;11.52;;
31112;SDS011;17763;48.730;9.136;2023-12-04T10:20:58;25.73;;;15.50;;
31112;SDS011;17763;48.730;9.136;2023-12-04T10:23:40;18.95;;;12.50;;
31112;SDS011;17763;48.730;9.136;2023-12-04T10:26:07;16.58;;;12.25;;
31112;SDS011;17763;48.730;9.136;2023-12-04T10:28:34;18.13;;;12.90;;
31112;SDS011;17763;48.730;9.136;2023-12-04T10:31:00;19.58;;;12.45;;
31112;SDS011;17763;48.730;9.136;2023-12-04T10:33:26;21.27;;;12.13;;
31112;SDS011;17763;48.730;9.136;2023-12-04T10:35:54;17.90;;;12.00;;
31112;SDS011;17763;48.730;9.136;2023-12-04T10:38:23;16.98;;;12.40;;
31112;SDS011;17763;48.730;9.136;2023-12-04T10:40:51;18.05;;;11.45;;
31112;SDS011;17763;48.730;9.136;2023-12-04T10:43:21;16.17;;;11.32;;
31112;SDS011;17763;48.730;9.136;2023-12-04T10:45:47;20.63;;;13.48;;
31112;SDS011;17763;48.730;9.136;2023-12-04T10:48:14;18.10;;;11.95;;
31112;SDS011;17763;48.730;9.136;2023-12-04T10:50:42;25.00;;;14.18;;
31112;SDS011;17763;48.730;9.136;2023-12-04T10:53:13;16.60;;;12.10;;
31112;SDS011;17763;48.730;9.136;2023-12-04T10:55:40;18.90;;;12.70;;
31112;SDS011;17763;48.730;9.136;2023-12-04T10:58:06;20.02;;;12.85;;
31112;SDS011;17763;48.730;9.136;2023-12-04T11:00:34;17.95;;;12.45;;
31112;SDS011;17763;48.730;9.136;2023-12-04T11:03:05;19.95;;;13.07;;
31112;SDS011;17763;48.730;9.136;2023-12-04T11:05:37;22.08;;;14.68;;
31112;SDS011;17763;48.730;9.136;2023-12-04T11:08:10;18.33;;;12.48;;
31112;SDS011;17763;48.730;9.136;2023-12-04T11:13:21;28.77;;;16.88;;
31112;SDS011;17763;48.730;9.136;2023-12-04T11:15:52;23.38;;;13.80;;
31112;SDS011;17763;48.730;9.136;2023-12-04T11:18:23;20.27;;;12.00;;
31112;SDS011;17763;48.730;9.136;2023-12-04T11:20:55;18.42;;;12.63;;
31112;SDS011;17763;48.730;9.136;2023-12-04T11:23:26;18.00;;;11.45;;
31112;SDS011;17763;48.730;9.136;2023-12-04T11:25:52;17.98;;;12.82;;
31112;SDS011;17763;48.730;9.136;2023-12-04T11:28:19;16.08;;;11.23;;
31112;SDS011;17763;48.730;9.136;2023-12-04T11:30:47;16.80;;;12.45;;
31112;SDS011;17763;48.730;9.136;2023-12-04T11:33:15;15.93;;;11.95;;
31112;SDS011;17763;48.730;9.136;2023-12-04T11:35:40;19.65;;;12.30;;
31112;SDS011;17763;48.730;9.136;2023-12-04T11:38:09;18.38;;;12.45;;
31112;SDS011;17763;48.730;9.136;2023-12-04T11:40:38;17.58;;;11.98;;
31112;SDS011;17763;48.730;9.136;2023-12-04T11:43:26;17.42;;;12.80;;
31112;SDS011;17763;48.730;9.136;2023-12-04T11:46:00;17.63;;;12.32;;
31112;SDS011;17763;48.730;9.136;2023-12-04T11:48:38;17.73;;;12.00;;
31112;SDS011;17763;48.730;9.136;2023-12-04T11:51:07;19.95;;;12.43;;
31112;SDS011;17763;48.730;9.136;2023-12-04T11:53:39;19.20;;;11.80;;
31112;SDS011;17763;48.730;9.136;2023-12-04T11:56:11;17.10;;;11.80;;
31112;SDS011;17763;48.730;9.136;2023-12-04T11:58:44;17.95;;;11.30;;
31112;SDS011;17763;48.730;9.136;2023-12-04T12:01:10;16.50;;;11.80;;
31112;SDS011;17763;48.730;9.136;2023-12-04T12:03:36;15.68;;;12.05;;
31112;SDS011;17763;48.730;9.136;2023-12-04T12:06:03;17.30;;;12.82;;
31112;SDS011;17763;48.730;9.136;2023-12-04T12:08:31;18.08;;;11.70;;
31112;SDS011;17763;48.730;9.136;2023-12-04T12:10:57;18.02;;;12.00;;
31112;SDS011;17763;48.730;9.136;2023-12-04T12:13:23;34.65;;;20.50;;
31112;SDS011;17763;48.730;9.136;2023-12-04T12:15:51;17.83;;;12.40;;
31112;SDS011;17763;48.730;9.136;2023-12-04T12:18:17;19.05;;;13.27;;
31112;SDS011;17763;48.730;9.136;2023-12-04T12:20:43;19.77;;;12.30;;
31112;SDS011;17763;48.730;9.136;2023-12-04T12:23:09;18.15;;;12.55;;
31112;SDS011;17763;48.730;9.136;2023-12-04T12:25:34;17.98;;;12.45;;
31112;SDS011;17763;48.730;9.136;2023-12-04T12:28:04;19.63;;;12.73;;
31112;SDS011;17763;48.730;9.136;2023-12-04T12:30:30;17.25;;;12.43;;
31112;SDS011;17763;48.730;9.136;2023-12-04T12:33:02;21.02;;;14.27;;
31112;SDS011;17763;48.730;9.136;2023-12-04T12:35:30;24.02;;;15.73;;
31112;SDS011;17763;48.730;9.136;2023-12-04T12:37:56;21.92;;;13.68;;
31112;SDS011;17763;48.730;9.136;2023-12-04T12:40:21;21.38;;;12.55;;
31112;SDS011;17763;48.730;9.136;2023-12-04T12:42:47;18.05;;;13.57;;
31112;SDS011;17763;48.730;9.136;2023-12-04T12:45:14;20.40;;;13.63;;
31112;SDS011;17763;48.730;9.136;2023-12-04T12:47:40;19.27;;;14.50;;
31112;SDS011;17763;48.730;9.136;2023-12-04T12:50:08;18.85;;;13.82;;
31112;SDS011;17763;48.730;9.136;2023-12-04T12:52:36;19.35;;;14.07;;
31112;SDS011;17763;48.730;9.136;2023-12-04T12:55:04;23.25;;;15.02;;
31112;SDS011;17763;48.730;9.136;2023-12-04T12:57:30;22.80;;;15.75;;
31112;SDS011;17763;48.730;9.136;2023-12-04T12:59:55;22.17;;;16.17;;
31112;SDS011;17763;48.730;9.136;2023-12-04T13:02:21;21.95;;;15.35;;
31112;SDS011;17763;48.730;9.136;2023-12-04T13:04:50;21.08;;;15.18;;
31112;SDS011;17763;48.730;9.136;2023-12-04T13:07:16;23.92;;;17.10;;
31112;SDS011;17763;48.730;9.136;2023-12-04T13:09:43;28.55;;;18.30;;
31112;SDS011;17763;48.730;9.136;2023-12-04T13:12:09;46.67;;;24.40;;
31112;SDS011;17763;48.730;9.136;2023-12-04T13:14:35;24.35;;;16.52;;
31112;SDS011;17763;48.730;9.136;2023-12-04T13:17:03;21.15;;;16.23;;
31112;SDS011;17763;48.730;9.136;2023-12-04T13:19:29;24.38;;;16.20;;
31112;SDS011;17763;48.730;9.136;2023-12-04T13:21:56;29.58;;;17.58;;
31112;SDS011;17763;48.730;9.136;2023-12-04T13:24:22;24.27;;;17.00;;
31112;SDS011;17763;48.730;9.136;2023-12-04T13:26:48;24.60;;;16.35;;
31112;SDS011;17763;48.730;9.136;2023-12-04T13:29:13;31.73;;;20.35;;
31112;SDS011;17763;48.730;9.136;2023-12-04T13:31:40;24.63;;;17.20;;
31112;SDS011;17763;48.730;9.136;2023-12-04T13:34:11;27.55;;;18.77;;
31112;SDS011;17763;48.730;9.136;2023-12-04T13:36:37;29.13;;;17.98;;
31112;SDS011;17763;48.730;9.136;2023-12-04T13:39:02;27.60;;;18.88;;
31112;SDS011;17763;48.730;9.136;2023-12-04T13:41:30;27.85;;;17.95;;
31112;SDS011;17763;48.730;9.136;2023-12-04T13:44:14;31.00;;;19.83;;
31112;SDS011;17763;48.730;9.136;2023-12-04T13:46:40;31.02;;;19.40;;
31112;SDS011;17763;48.730;9.136;2023-12-04T13:49:06;27.63;;;19.60;;
31112;SDS011;17763;48.730;9.136;2023-12-04T13:51:31;29.92;;;19.05;;
31112;SDS011;17763;48.730;9.136;2023-12-04T13:53:57;28.65;;;18.08;;
31112;SDS011;17763;48.730;9.136;2023-12-04T13:56:34;26.38;;;18.13;;
31112;SDS011;17763;48.730;9.136;2023-12-04T13:59:28;25.75;;;16.90;;
31112;SDS011;17763;48.730;9.136;2023-12-04T14:01:57;24.80;;;16.65;;
31112;SDS011;17763;48.730;9.136;2023-12-04T14:04:25;25.20;;;16.58;;
31112;SDS011;17763;48.730;9.136;2023-12-04T14:06:55;22.83;;;16.20;;
31112;SDS011;17763;48.730;9.136;2023-12-04T14:09:20;25.88;;;17.30;;
31112;SDS011;17763;48.730;9.136;2023-12-04T14:11:47;28.90;;;19.10;;
31112;SDS011;17763;48.730;9.136;2023-12-04T14:14:13;26.80;;;18.92;;
31112;SDS011;17763;48.730;9.136;2023-12-04T14:16:38;28.80;;;19.15;;
31112;SDS011;17763;48.730;9.136;2023-12-04T14:19:05;28.17;;;17.60;;
31112;SDS011;17763;48.730;9.136;2023-12-04T14:21:31;28.90;;;17.25;;
31112;SDS011;17763;48.730;9.136;2023-12-04T14:23:58;26.40;;;17.73;;